sensor_id;sensor_type;location;lat;lon;timestamp;temperature;humidity
72865;DHT22;61000;48.120;11.548;2023-05-10T00:00:03;13.40;99.90
72865;DHT22;61000;48.120;11.548;2023-05-10T00:02:40;13.40;99.90
72865;DHT22;61000;48.120;11.548;2023-05-10T00:05:08;13.40;99.90
72865;DHT22;61000;48.120;11.548;2023-05-10T00:07:35;13.40;99.90
72865;DHT22;61000;48.120;11.548;2023-05-10T00:10:05;13.40;99.90
72865;DHT22;61000;48.120;11.548;2023-05-10T00:12:32;13.30;99.90
72865;DHT22;61000;48.120;11.548;2023-05-10T00:14:58;13.30;99.90
72865;DHT22;61000;48.120;11.548;2023-05-10T00:17:25;13.30;99.90
72865;DHT22;61000;48.120;11.548;2023-05-10T00:19:54;13.30;99.90
72865;DHT22;61000;48.120;11.548;2023-05-10T00:22:20;13.30;99.90
72865;DHT22;61000;48.120;11.548;2023-05-10T00:24:47;13.30;99.90
72865;DHT22;61000;48.120;11.548;2023-05-10T00:27:14;13.30;99.90
72865;DHT22;61000;48.120;11.548;2023-05-10T00:29:41;13.30;99.90
72865;DHT22;61000;48.120;11.548;2023-05-10T00:32:08;13.30;99.90
72865;DHT22;61000;48.120;11.548;2023-05-10T00:34:35;13.20;99.90
72865;DHT22;61000;48.120;11.548;2023-05-10T00:37:04;13.30;99.90
72865;DHT22;61000;48.120;11.548;2023-05-10T00:39:32;13.20;99.90
72865;DHT22;61000;48.120;11.548;2023-05-10T00:41:59;13.20;99.90
72865;DHT22;61000;48.120;11.548;2023-05-10T00:44:26;13.20;99.90
72865;DHT22;61000;48.120;11.548;2023-05-10T00:46:53;13.20;99.90
72865;DHT22;61000;48.120;11.548;2023-05-10T00:49:20;13.20;99.90
72865;DHT22;61000;48.120;11.548;2023-05-10T00:51:47;13.20;99.90
72865;DHT22;61000;48.120;11.548;2023-05-10T00:54:16;13.20;99.90
72865;DHT22;61000;48.120;11.548;2023-05-10T00:56:44;13.20;99.90
72865;DHT22;61000;48.120;11.548;2023-05-10T00:59:14;13.20;99.90
72865;DHT22;61000;48.120;11.548;2023-05-10T01:01:42;13.20;99.90
72865;DHT22;61000;48.120;11.548;2023-05-10T01:04:09;13.20;99.90
72865;DHT22;61000;48.120;11.548;2023-05-10T01:06:37;13.20;99.90
72865;DHT22;61000;48.120;11.548;2023-05-10T01:09:04;13.10;99.90
72865;DHT22;61000;48.120;11.548;2023-05-10T01:11:33;13.10;99.90
72865;DHT22;61000;48.120;11.548;2023-05-10T01:14:02;13.10;99.90
72865;DHT22;61000;48.120;11.548;2023-05-10T01:16:31;13.10;99.90
72865;DHT22;61000;48.120;11.548;2023-05-10T01:18:58;13.10;99.90
72865;DHT22;61000;48.120;11.548;2023-05-10T01:21:31;13.10;99.90
72865;DHT22;61000;48.120;11.548;2023-05-10T01:24:40;13.10;99.90
72865;DHT22;61000;48.120;11.548;2023-05-10T01:27:55;13.10;99.90
72865;DHT22;61000;48.120;11.548;2023-05-10T01:31:03;13.10;99.90
72865;DHT22;61000;48.120;11.548;2023-05-10T01:33:37;13.10;99.90
72865;DHT22;61000;48.120;11.548;2023-05-10T01:36:08;13.10;99.90
72865;DHT22;61000;48.120;11.548;2023-05-10T01:38:42;13.10;99.90
72865;DHT22;61000;48.120;11.548;2023-05-10T01:41:14;13.00;99.90
72865;DHT22;61000;48.120;11.548;2023-05-10T01:43:52;13.00;99.90
72865;DHT22;61000;48.120;11.548;2023-05-10T01:46:27;13.00;99.90
72865;DHT22;61000;48.120;11.548;2023-05-10T01:48:58;13.00;99.90
72865;DHT22;61000;48.120;11.548;2023-05-10T01:51:31;13.00;99.90
72865;DHT22;61000;48.120;11.548;2023-05-10T01:54:02;13.00;99.90
72865;DHT22;61000;48.120;11.548;2023-05-10T01:56:32;13.00;99.90
72865;DHT22;61000;48.120;11.548;2023-05-10T01:59:00;13.00;99.90
72865;DHT22;61000;48.120;11.548;2023-05-10T02:01:33;13.00;99.90
72865;DHT22;61000;48.120;11.548;2023-05-10T02:04:04;13.00;99.90
72865;DHT22;61000;48.120;11.548;2023-05-10T02:06:33;13.00;99.90
72865;DHT22;61000;48.120;11.548;2023-05-10T02:09:01;12.90;99.90
72865;DHT22;61000;48.120;11.548;2023-05-10T02:11:30;13.00;99.90
72865;DHT22;61000;48.120;11.548;2023-05-10T02:13:58;13.00;99.90
72865;DHT22;61000;48.120;11.548;2023-05-10T02:16:27;13.00;99.90
72865;DHT22;61000;48.120;11.548;2023-05-10T02:18:57;12.90;99.90
72865;DHT22;61000;48.120;11.548;2023-05-10T02:21:28;12.90;99.90
72865;DHT22;61000;48.120;11.548;2023-05-10T02:23:57;12.90;99.90
72865;DHT22;61000;48.120;11.548;2023-05-10T02:26:25;12.90;99.90
72865;DHT22;61000;48.120;11.548;2023-05-10T02:28:53;12.90;99.90
72865;DHT22;61000;48.120;11.548;2023-05-10T02:31:22;12.90;99.90
72865;DHT22;61000;48.120;11.548;2023-05-10T02:33:50;12.90;99.90
72865;DHT22;61000;48.120;11.548;2023-05-10T02:36:17;12.90;99.90
72865;DHT22;61000;48.120;11.548;2023-05-10T02:38:48;12.90;99.90
72865;DHT22;61000;48.120;11.548;2023-05-10T02:41:16;12.80;99.90
72865;DHT22;61000;48.120;11.548;2023-05-10T02:43:44;12.80;99.90
72865;DHT22;61000;48.120;11.548;2023-05-10T02:46:12;12.90;99.90
72865;DHT22;61000;48.120;11.548;2023-05-10T02:48:39;12.90;99.90
72865;DHT22;61000;48.120;11.548;2023-05-10T02:51:07;12.90;99.90
72865;DHT22;61000;48.120;11.548;2023-05-10T02:53:36;12.90;99.90
72865;DHT22;61000;48.120;11.548;2023-05-10T02:56:12;12.90;99.90
72865;DHT22;61000;48.120;11.548;2023-05-10T02:58:39;12.90;99.90
72865;DHT22;61000;48.120;11.548;2023-05-10T03:01:06;12.90;99.90
72865;DHT22;61000;48.120;11.548;2023-05-10T03:03:34;12.90;99.90
72865;DHT22;61000;48.120;11.548;2023-05-10T03:06:01;12.90;99.90
72865;DHT22;61000;48.120;11.548;2023-05-10T03:08:28;12.90;99.90
72865;DHT22;61000;48.120;11.548;2023-05-10T03:11:14;12.90;99.90
72865;DHT22;61000;48.120;11.548;2023-05-10T03:13:52;12.80;99.90
72865;DHT22;61000;48.120;11.548;2023-05-10T03:16:27;12.80;99.90
72865;DHT22;61000;48.120;11.548;2023-05-10T03:19:00;12.80;99.90
72865;DHT22;61000;48.120;11.548;2023-05-10T03:21:31;12.80;99.90
72865;DHT22;61000;48.120;11.548;2023-05-10T03:24:04;12.80;99.90
72865;DHT22;61000;48.120;11.548;2023-05-10T03:26:37;12.80;99.90
72865;DHT22;61000;48.120;11.548;2023-05-10T03:29:10;12.80;99.90
72865;DHT22;61000;48.120;11.548;2023-05-10T03:31:38;12.80;99.90
72865;DHT22;61000;48.120;11.548;2023-05-10T03:34:05;12.80;99.90
72865;DHT22;61000;48.120;11.548;2023-05-10T03:36:32;12.80;99.90
72865;DHT22;61000;48.120;11.548;2023-05-10T03:39:00;12.80;99.90
72865;DHT22;61000;48.120;11.548;2023-05-10T03:41:27;12.80;99.90
72865;DHT22;61000;48.120;11.548;2023-05-10T03:43:56;12.80;99.90
72865;DHT22;61000;48.120;11.548;2023-05-10T03:46:22;12.70;99.90
72865;DHT22;61000;48.120;11.548;2023-05-10T03:48:52;12.80;99.90
72865;DHT22;61000;48.120;11.548;2023-05-10T03:51:23;12.70;99.90
72865;DHT22;61000;48.120;11.548;2023-05-10T03:53:53;12.70;99.90
72865;DHT22;61000;48.120;11.548;2023-05-10T03:56:20;12.80;99.90
72865;DHT22;61000;48.120;11.548;2023-05-10T03:58:47;12.70;99.90
72865;DHT22;61000;48.120;11.548;2023-05-10T04:01:15;12.70;99.90
72865;DHT22;61000;48.120;11.548;2023-05-10T04:03:42;12.80;99.90
72865;DHT22;61000;48.120;11.548;2023-05-10T04:06:11;12.70;99.90
72865;DHT22;61000;48.120;11.548;2023-05-10T04:08:38;12.70;99.90
72865;DHT22;61000;48.120;11.548;2023-05-10T04:11:06;12.70;99.90
72865;DHT22;61000;48.120;11.548;2023-05-10T04:13:33;12.80;99.90
72865;DHT22;61000;48.120;11.548;2023-05-10T04:16:00;12.80;99.90
72865;DHT22;61000;48.120;11.548;2023-05-10T04:18:28;12.80;99.90
72865;DHT22;61000;48.120;11.548;2023-05-10T04:21:01;12.70;99.90
72865;DHT22;61000;48.120;11.548;2023-05-10T04:23:31;12.70;99.90
72865;DHT22;61000;48.120;11.548;2023-05-10T04:26:01;12.80;99.90
72865;DHT22;61000;48.120;11.548;2023-05-10T04:28:27;12.80;99.90
72865;DHT22;61000;48.120;11.548;2023-05-10T04:31:01;12.80;99.90
72865;DHT22;61000;48.120;11.548;2023-05-10T04:33:32;12.80;99.90
72865;DHT22;61000;48.120;11.548;2023-05-10T04:36:07;12.80;99.90
72865;DHT22;61000;48.120;11.548;2023-05-10T04:38:37;12.80;99.90
72865;DHT22;61000;48.120;11.548;2023-05-10T04:41:04;12.90;99.90
72865;DHT22;61000;48.120;11.548;2023-05-10T04:43:32;12.80;99.90
72865;DHT22;61000;48.120;11.548;2023-05-10T04:45:59;12.80;99.90
72865;DHT22;61000;48.120;11.548;2023-05-10T04:48:26;12.90;99.90
72865;DHT22;61000;48.120;11.548;2023-05-10T04:50:54;12.80;99.90
72865;DHT22;61000;48.120;11.548;2023-05-10T04:53:24;12.80;99.90
72865;DHT22;61000;48.120;11.548;2023-05-10T04:55:58;12.80;99.90
72865;DHT22;61000;48.120;11.548;2023-05-10T04:58:25;12.70;99.90
72865;DHT22;61000;48.120;11.548;2023-05-10T05:00:54;12.70;99.90
72865;DHT22;61000;48.120;11.548;2023-05-10T05:03:21;12.70;99.90
72865;DHT22;61000;48.120;11.548;2023-05-10T05:05:51;12.60;99.90
72865;DHT22;61000;48.120;11.548;2023-05-10T05:08:22;12.60;99.90
72865;DHT22;61000;48.120;11.548;2023-05-10T05:10:49;12.60;99.90
72865;DHT22;61000;48.120;11.548;2023-05-10T05:13:16;12.60;99.90
72865;DHT22;61000;48.120;11.548;2023-05-10T05:15:49;12.50;99.90
72865;DHT22;61000;48.120;11.548;2023-05-10T05:18:37;12.50;99.90
72865;DHT22;61000;48.120;11.548;2023-05-10T05:21:13;12.40;99.90
72865;DHT22;61000;48.120;11.548;2023-05-10T05:23:47;12.40;99.90
72865;DHT22;61000;48.120;11.548;2023-05-10T05:26:22;12.30;99.90
72865;DHT22;61000;48.120;11.548;2023-05-10T05:28:51;12.20;99.90
72865;DHT22;61000;48.120;11.548;2023-05-10T05:31:20;12.20;99.90
72865;DHT22;61000;48.120;11.548;2023-05-10T05:33:47;12.20;99.90
72865;DHT22;61000;48.120;11.548;2023-05-10T05:36:24;12.20;99.90
72865;DHT22;61000;48.120;11.548;2023-05-10T05:38:52;12.10;99.90
72865;DHT22;61000;48.120;11.548;2023-05-10T05:41:19;12.00;99.90
72865;DHT22;61000;48.120;11.548;2023-05-10T05:43:47;12.00;99.90
72865;DHT22;61000;48.120;11.548;2023-05-10T05:46:13;11.90;99.90
72865;DHT22;61000;48.120;11.548;2023-05-10T05:48:40;11.80;99.90
72865;DHT22;61000;48.120;11.548;2023-05-10T05:51:07;11.80;99.90
72865;DHT22;61000;48.120;11.548;2023-05-10T05:56:03;11.70;99.90
72865;DHT22;61000;48.120;11.548;2023-05-10T05:58:30;11.70;99.90
72865;DHT22;61000;48.120;11.548;2023-05-10T06:00:57;11.70;99.90
72865;DHT22;61000;48.120;11.548;2023-05-10T06:03:24;11.70;99.90
72865;DHT22;61000;48.120;11.548;2023-05-10T06:05:51;11.80;99.90
72865;DHT22;61000;48.120;11.548;2023-05-10T06:08:18;11.80;99.90
72865;DHT22;61000;48.120;11.548;2023-05-10T06:10:46;11.80;99.90
72865;DHT22;61000;48.120;11.548;2023-05-10T06:13:14;11.90;99.90
72865;DHT22;61000;48.120;11.548;2023-05-10T06:15:41;11.90;99.90
72865;DHT22;61000;48.120;11.548;2023-05-10T06:18:08;11.90;99.90
72865;DHT22;61000;48.120;11.548;2023-05-10T06:20:34;12.00;99.90
72865;DHT22;61000;48.120;11.548;2023-05-10T06:23:01;12.10;99.90
72865;DHT22;61000;48.120;11.548;2023-05-10T06:25:28;12.10;99.90
72865;DHT22;61000;48.120;11.548;2023-05-10T06:27:55;12.00;99.90
72865;DHT22;61000;48.120;11.548;2023-05-10T06:30:25;12.10;99.90
72865;DHT22;61000;48.120;11.548;2023-05-10T06:32:54;12.10;99.90
72865;DHT22;61000;48.120;11.548;2023-05-10T06:35:21;12.20;99.90
72865;DHT22;61000;48.120;11.548;2023-05-10T06:37:48;12.30;99.90
72865;DHT22;61000;48.120;11.548;2023-05-10T06:40:15;12.20;99.90
72865;DHT22;61000;48.120;11.548;2023-05-10T06:42:42;12.20;99.90
72865;DHT22;61000;48.120;11.548;2023-05-10T06:45:11;12.30;99.90
72865;DHT22;61000;48.120;11.548;2023-05-10T06:47:39;12.40;99.90
72865;DHT22;61000;48.120;11.548;2023-05-10T06:50:07;12.50;99.90
72865;DHT22;61000;48.120;11.548;2023-05-10T06:52:34;12.50;99.90
72865;DHT22;61000;48.120;11.548;2023-05-10T06:55:01;12.60;99.90
72865;DHT22;61000;48.120;11.548;2023-05-10T06:57:29;12.60;99.90
72865;DHT22;61000;48.120;11.548;2023-05-10T06:59:56;12.60;99.90
72865;DHT22;61000;48.120;11.548;2023-05-10T07:02:23;12.80;99.90
72865;DHT22;61000;48.120;11.548;2023-05-10T07:04:51;12.80;99.90
72865;DHT22;61000;48.120;11.548;2023-05-10T07:07:18;12.90;99.90
72865;DHT22;61000;48.120;11.548;2023-05-10T07:09:45;13.10;99.90
72865;DHT22;61000;48.120;11.548;2023-05-10T07:12:12;13.30;99.90
72865;DHT22;61000;48.120;11.548;2023-05-10T07:14:39;13.30;99.90
72865;DHT22;61000;48.120;11.548;2023-05-10T07:17:06;13.40;99.90
72865;DHT22;61000;48.120;11.548;2023-05-10T07:19:33;13.40;99.90
72865;DHT22;61000;48.120;11.548;2023-05-10T07:22:01;13.50;99.90
72865;DHT22;61000;48.120;11.548;2023-05-10T07:24:28;13.50;99.90
72865;DHT22;61000;48.120;11.548;2023-05-10T07:26:55;13.60;99.90
72865;DHT22;61000;48.120;11.548;2023-05-10T07:29:22;13.70;99.90
72865;DHT22;61000;48.120;11.548;2023-05-10T07:31:49;13.80;99.90
72865;DHT22;61000;48.120;11.548;2023-05-10T07:34:16;13.90;99.90
72865;DHT22;61000;48.120;11.548;2023-05-10T07:36:42;14.00;99.90
72865;DHT22;61000;48.120;11.548;2023-05-10T07:39:11;14.10;99.90
72865;DHT22;61000;48.120;11.548;2023-05-10T07:41:38;14.20;99.90
72865;DHT22;61000;48.120;11.548;2023-05-10T07:44:05;14.10;99.90
72865;DHT22;61000;48.120;11.548;2023-05-10T07:46:32;14.10;99.90
72865;DHT22;61000;48.120;11.548;2023-05-10T07:48:59;14.20;99.90
72865;DHT22;61000;48.120;11.548;2023-05-10T07:51:26;14.20;99.90
72865;DHT22;61000;48.120;11.548;2023-05-10T07:53:53;14.30;99.90
72865;DHT22;61000;48.120;11.548;2023-05-10T07:56:23;14.30;99.90
72865;DHT22;61000;48.120;11.548;2023-05-10T07:58:50;14.30;99.90
72865;DHT22;61000;48.120;11.548;2023-05-10T08:01:18;14.30;99.90
72865;DHT22;61000;48.120;11.548;2023-05-10T08:03:45;14.40;99.90
72865;DHT22;61000;48.120;11.548;2023-05-10T08:06:12;14.60;99.90
72865;DHT22;61000;48.120;11.548;2023-05-10T08:08:40;14.80;99.90
72865;DHT22;61000;48.120;11.548;2023-05-10T08:11:09;15.00;99.90
72865;DHT22;61000;48.120;11.548;2023-05-10T08:13:48;14.80;99.90
72865;DHT22;61000;48.120;11.548;2023-05-10T08:16:15;14.90;99.90
72865;DHT22;61000;48.120;11.548;2023-05-10T08:18:43;14.80;99.90
72865;DHT22;61000;48.120;11.548;2023-05-10T08:21:10;14.70;99.90
72865;DHT22;61000;48.120;11.548;2023-05-10T08:23:37;14.80;99.90
72865;DHT22;61000;48.120;11.548;2023-05-10T08:26:04;14.80;99.90
72865;DHT22;61000;48.120;11.548;2023-05-10T08:28:31;14.80;99.90
72865;DHT22;61000;48.120;11.548;2023-05-10T08:30:59;14.80;99.90
72865;DHT22;61000;48.120;11.548;2023-05-10T08:33:26;14.80;99.90
72865;DHT22;61000;48.120;11.548;2023-05-10T08:35:53;14.60;99.90
72865;DHT22;61000;48.120;11.548;2023-05-10T08:38:20;14.70;99.90
72865;DHT22;61000;48.120;11.548;2023-05-10T08:40:49;14.50;99.90
72865;DHT22;61000;48.120;11.548;2023-05-10T08:43:22;14.60;99.90
72865;DHT22;61000;48.120;11.548;2023-05-10T08:45:50;14.60;99.90
72865;DHT22;61000;48.120;11.548;2023-05-10T08:48:20;14.60;99.90
72865;DHT22;61000;48.120;11.548;2023-05-10T08:50:53;14.60;99.90
72865;DHT22;61000;48.120;11.548;2023-05-10T08:53:21;14.80;99.90
72865;DHT22;61000;48.120;11.548;2023-05-10T08:55:50;14.50;99.90
72865;DHT22;61000;48.120;11.548;2023-05-10T08:58:17;14.50;99.90
72865;DHT22;61000;48.120;11.548;2023-05-10T09:00:45;14.40;99.90
72865;DHT22;61000;48.120;11.548;2023-05-10T09:03:13;14.40;99.90
72865;DHT22;61000;48.120;11.548;2023-05-10T09:05:42;14.30;99.90
72865;DHT22;61000;48.120;11.548;2023-05-10T09:08:10;14.30;99.90
72865;DHT22;61000;48.120;11.548;2023-05-10T09:10:39;14.50;99.90
72865;DHT22;61000;48.120;11.548;2023-05-10T09:13:07;14.90;99.90
72865;DHT22;61000;48.120;11.548;2023-05-10T09:15:35;15.00;99.90
72865;DHT22;61000;48.120;11.548;2023-05-10T09:18:02;15.00;99.90
72865;DHT22;61000;48.120;11.548;2023-05-10T09:20:30;14.90;99.90
72865;DHT22;61000;48.120;11.548;2023-05-10T09:22:58;14.90;99.90
72865;DHT22;61000;48.120;11.548;2023-05-10T09:25:25;14.90;99.90
72865;DHT22;61000;48.120;11.548;2023-05-10T09:27:52;14.80;99.90
72865;DHT22;61000;48.120;11.548;2023-05-10T09:30:24;14.70;99.90
72865;DHT22;61000;48.120;11.548;2023-05-10T09:32:52;14.60;99.90
72865;DHT22;61000;48.120;11.548;2023-05-10T09:35:21;14.70;99.90
72865;DHT22;61000;48.120;11.548;2023-05-10T09:37:50;14.60;99.90
72865;DHT22;61000;48.120;11.548;2023-05-10T09:40:19;14.80;99.90
72865;DHT22;61000;48.120;11.548;2023-05-10T09:42:52;14.80;99.90
72865;DHT22;61000;48.120;11.548;2023-05-10T09:45:20;15.00;99.90
72865;DHT22;61000;48.120;11.548;2023-05-10T09:47:47;15.00;99.90
72865;DHT22;61000;48.120;11.548;2023-05-10T09:50:14;15.10;99.90
72865;DHT22;61000;48.120;11.548;2023-05-10T09:52:49;15.30;99.90
72865;DHT22;61000;48.120;11.548;2023-05-10T09:55:19;15.40;99.90
72865;DHT22;61000;48.120;11.548;2023-05-10T09:57:47;15.60;99.90
72865;DHT22;61000;48.120;11.548;2023-05-10T10:00:18;15.70;99.90
72865;DHT22;61000;48.120;11.548;2023-05-10T10:02:47;16.00;99.90
72865;DHT22;61000;48.120;11.548;2023-05-10T10:05:14;16.00;99.90
72865;DHT22;61000;48.120;11.548;2023-05-10T10:07:41;16.00;99.90
72865;DHT22;61000;48.120;11.548;2023-05-10T10:10:12;16.30;99.90
72865;DHT22;61000;48.120;11.548;2023-05-10T10:12:41;16.50;99.90
72865;DHT22;61000;48.120;11.548;2023-05-10T10:15:08;16.70;99.90
72865;DHT22;61000;48.120;11.548;2023-05-10T10:17:36;16.50;99.90
72865;DHT22;61000;48.120;11.548;2023-05-10T10:20:05;16.40;99.90
72865;DHT22;61000;48.120;11.548;2023-05-10T10:22:33;16.30;99.90
72865;DHT22;61000;48.120;11.548;2023-05-10T10:25:00;16.30;99.90
72865;DHT22;61000;48.120;11.548;2023-05-10T10:27:36;16.50;99.90
72865;DHT22;61000;48.120;11.548;2023-05-10T10:30:14;16.30;99.90
72865;DHT22;61000;48.120;11.548;2023-05-10T10:33:01;16.50;99.90
72865;DHT22;61000;48.120;11.548;2023-05-10T10:35:35;16.80;99.90
72865;DHT22;61000;48.120;11.548;2023-05-10T10:38:02;17.20;99.90
72865;DHT22;61000;48.120;11.548;2023-05-10T10:40:30;17.60;98.30
72865;DHT22;61000;48.120;11.548;2023-05-10T10:43:21;17.90;97.70
72865;DHT22;61000;48.120;11.548;2023-05-10T10:46:09;18.20;97.20
72865;DHT22;61000;48.120;11.548;2023-05-10T10:48:36;18.10;96.10
72865;DHT22;61000;48.120;11.548;2023-05-10T10:51:04;17.90;96.30
72865;DHT22;61000;48.120;11.548;2023-05-10T10:53:32;17.60;96.80
72865;DHT22;61000;48.120;11.548;2023-05-10T10:56:06;17.40;96.90
72865;DHT22;61000;48.120;11.548;2023-05-10T10:58:35;17.10;97.40
72865;DHT22;61000;48.120;11.548;2023-05-10T11:01:14;17.00;97.70
72865;DHT22;61000;48.120;11.548;2023-05-10T11:04:04;16.70;98.60
72865;DHT22;61000;48.120;11.548;2023-05-10T11:06:43;16.50;99.90
72865;DHT22;61000;48.120;11.548;2023-05-10T11:09:11;16.20;99.90
72865;DHT22;61000;48.120;11.548;2023-05-10T11:11:50;16.00;99.90
72865;DHT22;61000;48.120;11.548;2023-05-10T11:14:20;15.80;99.90
72865;DHT22;61000;48.120;11.548;2023-05-10T11:16:47;15.60;99.90
72865;DHT22;61000;48.120;11.548;2023-05-10T11:19:16;15.40;99.90
72865;DHT22;61000;48.120;11.548;2023-05-10T11:21:48;15.30;99.90
72865;DHT22;61000;48.120;11.548;2023-05-10T11:24:17;15.20;99.90
72865;DHT22;61000;48.120;11.548;2023-05-10T11:26:45;15.20;99.90
72865;DHT22;61000;48.120;11.548;2023-05-10T11:29:13;15.20;99.90
72865;DHT22;61000;48.120;11.548;2023-05-10T11:31:44;15.00;99.90
72865;DHT22;61000;48.120;11.548;2023-05-10T11:34:22;14.80;99.90
72865;DHT22;61000;48.120;11.548;2023-05-10T11:36:53;14.60;99.90
72865;DHT22;61000;48.120;11.548;2023-05-10T11:39:20;14.40;99.90
72865;DHT22;61000;48.120;11.548;2023-05-10T11:41:48;14.20;99.90
72865;DHT22;61000;48.120;11.548;2023-05-10T11:44:15;14.00;99.90
72865;DHT22;61000;48.120;11.548;2023-05-10T11:46:42;13.90;99.90
72865;DHT22;61000;48.120;11.548;2023-05-10T11:49:10;13.70;99.90
72865;DHT22;61000;48.120;11.548;2023-05-10T11:51:38;13.60;99.90
72865;DHT22;61000;48.120;11.548;2023-05-10T11:54:10;13.40;99.90
72865;DHT22;61000;48.120;11.548;2023-05-10T11:56:38;13.30;99.90
72865;DHT22;61000;48.120;11.548;2023-05-10T11:59:06;13.10;99.90
72865;DHT22;61000;48.120;11.548;2023-05-10T12:01:33;12.90;99.90
72865;DHT22;61000;48.120;11.548;2023-05-10T12:04:01;12.80;99.90
72865;DHT22;61000;48.120;11.548;2023-05-10T12:06:29;12.70;99.90
72865;DHT22;61000;48.120;11.548;2023-05-10T12:08:57;12.70;99.90
72865;DHT22;61000;48.120;11.548;2023-05-10T12:11:27;12.70;99.90
72865;DHT22;61000;48.120;11.548;2023-05-10T12:13:54;12.70;99.90
72865;DHT22;61000;48.120;11.548;2023-05-10T12:16:23;12.60;99.90
72865;DHT22;61000;48.120;11.548;2023-05-10T12:18:51;12.50;99.90
72865;DHT22;61000;48.120;11.548;2023-05-10T12:21:19;12.60;99.90
72865;DHT22;61000;48.120;11.548;2023-05-10T12:23:46;12.60;99.90
72865;DHT22;61000;48.120;11.548;2023-05-10T12:26:14;12.60;99.90
72865;DHT22;61000;48.120;11.548;2023-05-10T12:28:43;12.60;99.90
72865;DHT22;61000;48.120;11.548;2023-05-10T12:31:12;12.70;99.90
72865;DHT22;61000;48.120;11.548;2023-05-10T12:33:41;12.70;99.90
72865;DHT22;61000;48.120;11.548;2023-05-10T12:36:09;12.80;99.90
72865;DHT22;61000;48.120;11.548;2023-05-10T12:38:37;12.90;99.90
72865;DHT22;61000;48.120;11.548;2023-05-10T12:41:05;12.90;99.90
72865;DHT22;61000;48.120;11.548;2023-05-10T12:43:33;12.90;99.90
72865;DHT22;61000;48.120;11.548;2023-05-10T12:46:06;12.80;99.90
72865;DHT22;61000;48.120;11.548;2023-05-10T12:48:35;12.70;99.90
72865;DHT22;61000;48.120;11.548;2023-05-10T12:51:02;12.80;99.90
72865;DHT22;61000;48.120;11.548;2023-05-10T12:53:30;12.80;99.90
72865;DHT22;61000;48.120;11.548;2023-05-10T12:55:59;12.90;99.90
72865;DHT22;61000;48.120;11.548;2023-05-10T12:58:25;13.00;99.90
72865;DHT22;61000;48.120;11.548;2023-05-10T13:00:53;12.80;99.90
72865;DHT22;61000;48.120;11.548;2023-05-10T13:03:23;13.00;99.90
72865;DHT22;61000;48.120;11.548;2023-05-10T13:05:50;13.00;99.90
72865;DHT22;61000;48.120;11.548;2023-05-10T13:08:16;13.00;99.90
72865;DHT22;61000;48.120;11.548;2023-05-10T13:10:43;13.00;99.90
72865;DHT22;61000;48.120;11.548;2023-05-10T13:13:11;13.00;99.90
72865;DHT22;61000;48.120;11.548;2023-05-10T13:15:37;13.00;99.90
72865;DHT22;61000;48.120;11.548;2023-05-10T13:18:04;13.00;99.90
72865;DHT22;61000;48.120;11.548;2023-05-10T13:20:33;13.00;99.90
72865;DHT22;61000;48.120;11.548;2023-05-10T13:22:59;13.10;99.90
72865;DHT22;61000;48.120;11.548;2023-05-10T13:25:28;13.10;99.90
72865;DHT22;61000;48.120;11.548;2023-05-10T13:27:54;13.20;99.90
72865;DHT22;61000;48.120;11.548;2023-05-10T13:30:21;13.20;99.90
72865;DHT22;61000;48.120;11.548;2023-05-10T13:32:49;13.20;99.90
72865;DHT22;61000;48.120;11.548;2023-05-10T13:35:16;13.20;99.90
72865;DHT22;61000;48.120;11.548;2023-05-10T13:37:44;13.20;99.90
72865;DHT22;61000;48.120;11.548;2023-05-10T13:40:11;13.20;99.90
72865;DHT22;61000;48.120;11.548;2023-05-10T13:42:39;13.10;99.90
72865;DHT22;61000;48.120;11.548;2023-05-10T13:45:06;13.00;99.90
72865;DHT22;61000;48.120;11.548;2023-05-10T13:47:33;12.90;99.90
72865;DHT22;61000;48.120;11.548;2023-05-10T13:50:00;13.00;99.90
72865;DHT22;61000;48.120;11.548;2023-05-10T13:52:27;12.80;99.90
72865;DHT22;61000;48.120;11.548;2023-05-10T13:54:55;12.80;99.90
72865;DHT22;61000;48.120;11.548;2023-05-10T13:57:22;12.80;99.90
72865;DHT22;61000;48.120;11.548;2023-05-10T13:59:49;12.80;99.90
72865;DHT22;61000;48.120;11.548;2023-05-10T14:02:17;12.80;99.90
72865;DHT22;61000;48.120;11.548;2023-05-10T14:04:43;12.90;99.90
72865;DHT22;61000;48.120;11.548;2023-05-10T14:07:10;12.80;99.90
72865;DHT22;61000;48.120;11.548;2023-05-10T14:09:41;12.90;99.90
72865;DHT22;61000;48.120;11.548;2023-05-10T14:12:12;13.00;99.90
72865;DHT22;61000;48.120;11.548;2023-05-10T14:14:40;13.00;99.90
72865;DHT22;61000;48.120;11.548;2023-05-10T14:17:06;13.00;99.90
72865;DHT22;61000;48.120;11.548;2023-05-10T14:19:33;13.00;99.90
72865;DHT22;61000;48.120;11.548;2023-05-10T14:22:00;12.90;99.90
72865;DHT22;61000;48.120;11.548;2023-05-10T14:24:28;12.90;99.90
72865;DHT22;61000;48.120;11.548;2023-05-10T14:26:55;12.90;99.90
72865;DHT22;61000;48.120;11.548;2023-05-10T14:29:23;13.00;99.90
72865;DHT22;61000;48.120;11.548;2023-05-10T14:31:50;12.90;99.90
72865;DHT22;61000;48.120;11.548;2023-05-10T14:34:17;13.00;99.90
72865;DHT22;61000;48.120;11.548;2023-05-10T14:36:44;13.10;99.90
72865;DHT22;61000;48.120;11.548;2023-05-10T14:39:11;13.00;99.90
72865;DHT22;61000;48.120;11.548;2023-05-10T14:41:39;13.00;99.90
72865;DHT22;61000;48.120;11.548;2023-05-10T14:44:07;13.00;99.90
72865;DHT22;61000;48.120;11.548;2023-05-10T14:46:35;13.00;99.90
72865;DHT22;61000;48.120;11.548;2023-05-10T14:49:02;12.90;99.90
72865;DHT22;61000;48.120;11.548;2023-05-10T14:51:29;12.80;99.90
72865;DHT22;61000;48.120;11.548;2023-05-10T14:53:57;12.80;99.90
72865;DHT22;61000;48.120;11.548;2023-05-10T14:56:24;12.80;99.90
72865;DHT22;61000;48.120;11.548;2023-05-10T14:58:51;12.70;99.90
72865;DHT22;61000;48.120;11.548;2023-05-10T15:01:18;12.70;99.90
72865;DHT22;61000;48.120;11.548;2023-05-10T15:03:46;12.70;99.90
72865;DHT22;61000;48.120;11.548;2023-05-10T15:06:14;12.60;99.90
72865;DHT22;61000;48.120;11.548;2023-05-10T15:08:41;12.50;99.90
72865;DHT22;61000;48.120;11.548;2023-05-10T15:11:10;12.50;99.90
72865;DHT22;61000;48.120;11.548;2023-05-10T15:13:37;12.50;99.90
72865;DHT22;61000;48.120;11.548;2023-05-10T15:16:04;12.60;99.90
72865;DHT22;61000;48.120;11.548;2023-05-10T15:18:30;12.50;99.90
72865;DHT22;61000;48.120;11.548;2023-05-10T15:20:59;12.50;99.90
72865;DHT22;61000;48.120;11.548;2023-05-10T15:23:26;12.40;99.90
72865;DHT22;61000;48.120;11.548;2023-05-10T15:25:54;12.50;99.90
72865;DHT22;61000;48.120;11.548;2023-05-10T15:28:21;12.40;99.90